createdAt,value
2023-03-06T00:00:59.051Z,-1.26
2023-03-06T00:03:28.317Z,-1.40
2023-03-06T00:05:59.144Z,-1.53
2023-03-06T00:08:28.472Z,-1.10
2023-03-06T00:11:01.018Z,-0.66
2023-03-06T00:13:35.355Z,-0.66
2023-03-06T00:16:07.269Z,-0.88
2023-03-06T00:18:35.894Z,-1.11
2023-03-06T00:21:11.334Z,-1.35
2023-03-06T00:23:41.556Z,-1.55
2023-03-06T00:26:10.257Z,-1.68
2023-03-06T00:28:39.843Z,-1.64
2023-03-06T00:31:15.622Z,-0.96
2023-03-06T00:33:47.659Z,-0.62
2023-03-06T00:36:16.662Z,-0.67
2023-03-06T00:38:45.342Z,-0.82
2023-03-06T00:41:13.852Z,-1.01
2023-03-06T00:43:42.700Z,-1.16
2023-03-06T00:46:11.330Z,-1.35
2023-03-06T00:48:41.204Z,-1.48
2023-03-06T00:51:13.481Z,-1.37
2023-03-06T00:53:43.795Z,-0.72
2023-03-06T00:56:12.273Z,-0.50
2023-03-06T00:58:41.582Z,-0.55
2023-03-06T01:01:10.076Z,-0.70
2023-03-06T01:03:40.481Z,-0.95
2023-03-06T01:06:10.292Z,-1.15
2023-03-06T01:08:39.284Z,-1.27
2023-03-06T01:11:08.830Z,-1.41
2023-03-06T01:13:37.468Z,-0.95
2023-03-06T01:16:09.190Z,-0.52
2023-03-06T01:18:38.357Z,-0.49
2023-03-06T01:21:06.801Z,-0.67
2023-03-06T01:23:36.827Z,-0.83
2023-03-06T01:26:05.946Z,-1.04
2023-03-06T01:28:35.420Z,-1.19
2023-03-06T01:31:04.420Z,-1.21
2023-03-06T01:33:34.493Z,-0.70
2023-03-06T01:36:08.405Z,-0.58
2023-03-06T01:38:37.842Z,-0.66
2023-03-06T01:41:06.495Z,-0.78
2023-03-06T01:43:36.234Z,-1.06
2023-03-06T01:46:19.783Z,-1.26
2023-03-06T01:48:48.458Z,-1.36
2023-03-06T01:51:16.736Z,-0.92
2023-03-06T01:53:45.317Z,-0.76
2023-03-06T01:56:14.310Z,-0.91
2023-03-06T01:58:44.057Z,-1.04
2023-03-06T02:01:13.483Z,-1.20
2023-03-06T02:03:42.107Z,-1.28
2023-03-06T02:06:13.282Z,-1.22
2023-03-06T02:08:50.246Z,-0.86
2023-03-06T02:11:26.128Z,-0.60
2023-03-06T02:13:55.719Z,-0.64
2023-03-06T02:16:29.229Z,-0.94
2023-03-06T02:19:02.956Z,-1.10
2023-03-06T02:21:36.507Z,-1.23
2023-03-06T02:24:11.880Z,-1.38
2023-03-06T02:26:41.034Z,-1.39
2023-03-06T02:29:12.310Z,-0.94
2023-03-06T02:31:42.516Z,-0.69
2023-03-06T02:34:17.038Z,-0.93
2023-03-06T02:36:49.190Z,-1.25
2023-03-06T02:39:19.001Z,-1.42
2023-03-06T02:41:48.615Z,-1.56
2023-03-06T02:44:17.617Z,-1.69
2023-03-06T02:46:46.128Z,-1.21
2023-03-06T02:49:14.764Z,-0.99
2023-03-06T02:51:44.000Z,-1.07
2023-03-06T02:54:13.590Z,-1.42
2023-03-06T02:56:45.339Z,-1.55
2023-03-06T02:59:14.110Z,-1.70
2023-03-06T03:01:47.952Z,-1.92
2023-03-06T03:04:16.823Z,-1.49
2023-03-06T03:06:45.597Z,-1.14
2023-03-06T03:09:14.294Z,-1.19
2023-03-06T03:11:44.612Z,-1.38
2023-03-06T03:14:13.571Z,-1.55
2023-03-06T03:16:42.086Z,-1.71
2023-03-06T03:19:10.761Z,-1.96
2023-03-06T03:21:40.984Z,-2.05
2023-03-06T03:24:09.575Z,-1.72
2023-03-06T03:26:38.160Z,-1.35
2023-03-06T03:29:11.005Z,-1.40
2023-03-06T03:31:39.630Z,-1.50
2023-03-06T03:34:08.931Z,-1.64
2023-03-06T03:36:40.930Z,-1.80
2023-03-06T03:39:12.143Z,-2.02
2023-03-06T03:41:40.711Z,-2.06
2023-03-06T03:44:10.529Z,-1.66
2023-03-06T03:46:41.716Z,-1.54
2023-03-06T03:49:14.969Z,-1.65
2023-03-06T03:51:44.362Z,-1.86
2023-03-06T03:54:13.083Z,-2.09
2023-03-06T03:56:44.727Z,-2.20
2023-03-06T04:02:21.137Z,-1.87
2023-03-06T04:04:55.072Z,-1.66
2023-03-06T04:07:22.766Z,-1.80
2023-03-06T04:09:50.151Z,-1.95
2023-03-06T04:12:18.604Z,-2.14
2023-03-06T04:14:47.076Z,-2.33
2023-03-06T04:17:14.548Z,-2.49
2023-03-06T04:19:41.691Z,-2.42
2023-03-06T04:22:08.793Z,-1.80
2023-03-06T04:24:37.421Z,-1.86
2023-03-06T04:27:08.150Z,-2.04
2023-03-06T04:29:35.838Z,-2.14
2023-03-06T04:32:03.270Z,-2.26
2023-03-06T04:34:30.521Z,-2.35
2023-03-06T04:37:02.298Z,-2.49
2023-03-06T04:39:30.144Z,-2.01
2023-03-06T04:41:57.540Z,-1.75
2023-03-06T04:44:25.783Z,-2.01
2023-03-06T04:46:53.236Z,-2.30
2023-03-06T04:49:20.403Z,-2.43
2023-03-06T04:51:47.374Z,-2.59
2023-03-06T04:54:14.380Z,-2.90
2023-03-06T04:56:41.525Z,-2.68
2023-03-06T04:59:10.106Z,-2.23
2023-03-06T05:01:37.567Z,-2.20
2023-03-06T05:04:05.531Z,-2.30
2023-03-06T05:06:33.330Z,-2.47
2023-03-06T05:09:00.445Z,-2.63
2023-03-06T05:11:27.619Z,-2.74
2023-03-06T05:13:55.966Z,-2.93
2023-03-06T05:16:23.038Z,-3.17
2023-03-06T05:18:50.739Z,-3.14
2023-03-06T05:21:17.950Z,-2.83
2023-03-06T05:23:45.030Z,-2.63
2023-03-06T05:26:13.066Z,-2.76
2023-03-06T05:28:40.297Z,-2.74
2023-03-06T05:31:08.816Z,-2.69
2023-03-06T05:33:36.027Z,-2.65
2023-03-06T05:36:04.202Z,-2.76
2023-03-06T05:38:31.870Z,-2.91
2023-03-06T05:40:59.014Z,-3.20
2023-03-06T05:43:26.223Z,-3.22
2023-03-06T05:46:01.627Z,-2.96
2023-03-06T05:48:29.074Z,-2.49
2023-03-06T05:50:57.659Z,-2.29
2023-03-06T05:53:26.455Z,-2.45
2023-03-06T05:56:05.029Z,-2.60
2023-03-06T05:58:33.535Z,-2.75
2023-03-06T06:01:00.812Z,-2.82
2023-03-06T06:03:27.985Z,-2.98
2023-03-06T06:05:55.289Z,-3.12
2023-03-06T06:08:22.339Z,-3.23
2023-03-06T06:10:52.192Z,-3.17
2023-03-06T06:13:23.909Z,-2.59
2023-03-06T06:15:57.876Z,-2.10
2023-03-06T06:18:25.109Z,-2.18
2023-03-06T06:20:53.435Z,-2.30
2023-03-06T06:23:21.727Z,-2.41
2023-03-06T06:25:48.773Z,-2.50
2023-03-06T06:28:16.281Z,-2.53
2023-03-06T06:30:44.028Z,-2.56
2023-03-06T06:33:11.761Z,-2.58
2023-03-06T06:35:38.827Z,-2.64
2023-03-06T06:38:07.685Z,-2.61
2023-03-06T06:40:35.483Z,-2.48
2023-03-06T06:43:02.807Z,-2.50
2023-03-06T06:45:30.572Z,-2.51
2023-03-06T06:47:57.688Z,-2.41
2023-03-06T06:50:24.790Z,-2.39
2023-03-06T06:52:52.251Z,-2.28
2023-03-06T06:55:21.318Z,-2.25
2023-03-06T06:57:48.478Z,-2.11
2023-03-06T07:00:17.480Z,-2.05
2023-03-06T07:02:48.709Z,-1.99
2023-03-06T07:05:15.916Z,-1.93
2023-03-06T07:07:44.448Z,-1.88
2023-03-06T07:10:13.746Z,-1.83
2023-03-06T07:12:45.294Z,-1.80
2023-03-06T07:15:14.611Z,-1.88
2023-03-06T07:17:42.252Z,-1.92
2023-03-06T07:20:13.440Z,-1.90
2023-03-06T07:22:50.398Z,-1.92
2023-03-06T07:25:19.080Z,-1.94
2023-03-06T07:27:52.762Z,-1.93
2023-03-06T07:30:22.594Z,-1.67
2023-03-06T07:32:53.526Z,-0.81
2023-03-06T07:35:21.081Z,-0.42
2023-03-06T07:37:48.359Z,-0.52
2023-03-06T07:40:15.892Z,-0.53
2023-03-06T07:42:43.039Z,-0.62
2023-03-06T07:45:12.765Z,-0.72
2023-03-06T07:47:40.729Z,-0.80
2023-03-06T07:50:10.445Z,-0.90
2023-03-06T07:52:39.150Z,-1.02
2023-03-06T07:55:07.595Z,-1.04
2023-03-06T07:57:36.183Z,-0.89
2023-03-06T08:00:05.232Z,-0.88
2023-03-06T08:02:40.753Z,-0.92
2023-03-06T08:05:09.305Z,-1.05
2023-03-06T08:07:36.976Z,-1.18
2023-03-06T08:10:05.137Z,-1.06
2023-03-06T08:12:32.308Z,-0.93
2023-03-06T08:14:59.430Z,-0.85
2023-03-06T08:17:32.011Z,-0.68
2023-03-06T08:19:59.069Z,-0.48
2023-03-06T08:22:26.118Z,-0.27
2023-03-06T08:24:55.920Z,-0.17
2023-03-06T08:27:23.470Z,-0.22
2023-03-06T08:29:51.746Z,-0.12
2023-03-06T08:32:19.005Z,-0.11
2023-03-06T08:34:46.253Z,-0.02
2023-03-06T08:37:16.910Z,-0.06
2023-03-06T08:39:45.135Z,-0.17
2023-03-06T08:42:12.414Z,-0.31
2023-03-06T08:44:39.795Z,-0.30
2023-03-06T08:47:07.130Z,-0.24
2023-03-06T08:49:35.594Z,-0.21
2023-03-06T08:52:03.166Z,-0.11
2023-03-06T08:54:33.990Z,-0.02
2023-03-06T08:57:01.528Z,-0.02
2023-03-06T08:59:28.905Z,-0.13
2023-03-06T09:01:56.151Z,-0.13
2023-03-06T09:04:37.440Z,-0.11
2023-03-06T09:07:05.207Z,-0.11
2023-03-06T09:09:32.560Z,0.02
2023-03-06T09:12:01.347Z,-0.02
2023-03-06T09:14:28.734Z,-0.21
2023-03-06T09:16:56.126Z,-0.22
2023-03-06T09:19:23.438Z,-0.20
2023-03-06T09:21:51.268Z,-0.18
2023-03-06T09:24:21.259Z,-0.13
2023-03-06T09:26:50.489Z,-0.00
2023-03-06T09:29:18.679Z,0.13
2023-03-06T09:31:47.887Z,0.19
2023-03-06T09:34:15.119Z,0.21
2023-03-06T09:36:55.939Z,0.18
2023-03-06T09:39:25.408Z,0.22
2023-03-06T09:41:52.454Z,0.25
2023-03-06T09:44:25.521Z,0.33
2023-03-06T09:47:17.591Z,0.41
2023-03-06T09:50:13.594Z,0.39
2023-03-06T09:52:43.717Z,0.46
2023-03-06T09:55:15.080Z,0.46
2023-03-06T09:57:44.872Z,0.50
2023-03-06T10:00:16.408Z,0.45
2023-03-06T10:02:50.065Z,0.37
2023-03-06T10:05:28.832Z,0.46
2023-03-06T10:08:11.032Z,0.47
2023-03-06T10:11:01.639Z,0.51
2023-03-06T10:13:49.972Z,0.66
2023-03-06T10:16:30.853Z,0.75
2023-03-06T10:19:03.490Z,0.74
2023-03-06T10:21:34.161Z,0.58
2023-03-06T10:24:25.101Z,0.60
2023-03-06T10:26:58.173Z,0.59
2023-03-06T10:29:56.416Z,0.66
2023-03-06T10:32:46.185Z,0.59
2023-03-06T10:35:21.238Z,0.34
2023-03-06T10:37:48.198Z,0.38
2023-03-06T10:40:17.975Z,0.24
2023-03-06T10:42:45.764Z,0.14
2023-03-06T10:45:16.642Z,0.26
2023-03-06T10:47:44.482Z,0.43
2023-03-06T10:50:26.014Z,0.41
2023-03-06T10:53:01.744Z,0.34
2023-03-06T10:55:34.597Z,0.54
2023-03-06T10:58:28.888Z,0.61
2023-03-06T11:01:07.713Z,0.63
2023-03-06T11:03:36.109Z,0.55
2023-03-06T11:06:13.487Z,0.60
2023-03-06T11:08:43.741Z,0.46
2023-03-06T11:11:18.510Z,0.53
2023-03-06T11:13:58.162Z,0.50
2023-03-06T11:16:32.498Z,0.61
2023-03-06T11:19:06.606Z,0.66
2023-03-06T11:21:36.028Z,0.67
2023-03-06T11:24:08.183Z,0.45
2023-03-06T11:26:40.639Z,0.51
2023-03-06T11:29:38.531Z,0.24
2023-03-06T11:32:19.800Z,0.31
2023-03-06T11:35:15.647Z,0.38
2023-03-06T11:37:53.536Z,0.31
2023-03-06T11:40:31.534Z,0.11
2023-03-06T11:43:04.724Z,0.10
2023-03-06T11:45:43.719Z,0.14
2023-03-06T11:48:14.064Z,0.28
2023-03-06T11:50:48.934Z,0.31
2023-03-06T11:53:27.811Z,0.38
2023-03-06T11:56:31.818Z,0.29
2023-03-06T11:59:24.341Z,0.34
2023-03-06T12:02:23.314Z,0.40
2023-03-06T12:05:09.481Z,0.48
2023-03-06T12:08:16.384Z,0.57
2023-03-06T12:11:22.825Z,0.63
2023-03-06T12:14:11.770Z,0.53
2023-03-06T12:16:45.627Z,0.46
2023-03-06T12:19:33.001Z,0.41
2023-03-06T12:22:36.306Z,0.49
2023-03-06T12:25:06.539Z,0.69
2023-03-06T12:27:49.341Z,0.71
2023-03-06T12:30:38.204Z,0.68
2023-03-06T12:33:31.696Z,0.67
2023-03-06T12:36:08.258Z,0.65
2023-03-06T12:38:55.190Z,0.71
2023-03-06T12:41:24.046Z,0.82
2023-03-06T12:43:54.363Z,0.83
2023-03-06T12:46:24.703Z,1.03
2023-03-06T12:49:01.933Z,1.42
2023-03-06T12:51:29.121Z,1.65
2023-03-06T12:53:57.092Z,1.58
2023-03-06T12:56:23.948Z,1.45
2023-03-06T12:58:55.802Z,1.31
2023-03-06T13:02:13.931Z,1.17
2023-03-06T13:05:03.107Z,1.10
2023-03-06T13:07:36.912Z,1.28
2023-03-06T13:10:27.880Z,1.48
2023-03-06T13:13:04.728Z,1.42
2023-03-06T13:15:48.944Z,1.25
2023-03-06T13:18:22.453Z,1.13
2023-03-06T13:20:54.830Z,1.02
2023-03-06T13:23:34.982Z,0.90
2023-03-06T13:26:24.552Z,0.77
2023-03-06T13:28:53.546Z,0.76
2023-03-06T13:31:33.257Z,0.76
2023-03-06T13:34:09.060Z,0.66
2023-03-06T13:36:39.482Z,0.58
2023-03-06T13:39:11.134Z,0.42
2023-03-06T13:41:42.363Z,0.17
2023-03-06T13:44:25.194Z,0.05
2023-03-06T13:46:59.652Z,-0.01
2023-03-06T13:49:27.613Z,-0.01
2023-03-06T13:51:54.957Z,0.02
2023-03-06T13:54:29.055Z,0.04
2023-03-06T13:57:22.093Z,0.08
2023-03-06T13:59:59.599Z,0.18
2023-03-06T14:02:54.543Z,0.29
2023-03-06T14:05:22.361Z,0.41
2023-03-06T14:08:25.630Z,0.53
2023-03-06T14:11:08.250Z,0.43
2023-03-06T14:13:47.565Z,0.37
2023-03-06T14:16:37.578Z,0.32
2023-03-06T14:19:16.095Z,0.31
2023-03-06T14:21:55.234Z,0.34
2023-03-06T14:24:34.872Z,0.40
2023-03-06T14:27:02.322Z,0.45
2023-03-06T14:29:30.326Z,0.43
2023-03-06T14:31:58.766Z,0.32
2023-03-06T14:34:28.080Z,0.30
2023-03-06T14:37:01.094Z,0.26
2023-03-06T14:39:41.964Z,0.18
2023-03-06T14:42:17.601Z,0.77
2023-03-06T14:44:45.968Z,1.42
2023-03-06T14:47:29.298Z,1.54
2023-03-06T14:50:18.972Z,1.47
2023-03-06T14:52:45.911Z,1.10
2023-03-06T14:55:21.045Z,0.93
2023-03-06T14:58:11.568Z,0.85
2023-03-06T15:00:41.351Z,0.78
2023-03-06T15:03:24.065Z,0.61
2023-03-06T15:05:51.322Z,0.49
2023-03-06T15:08:24.926Z,0.38
2023-03-06T15:11:00.990Z,0.32
2023-03-06T15:13:32.440Z,0.28
2023-03-06T15:16:00.850Z,0.21
2023-03-06T15:18:38.428Z,0.15
2023-03-06T15:21:20.019Z,0.09
2023-03-06T15:23:48.466Z,0.04
2023-03-06T15:26:28.049Z,-0.00
2023-03-06T15:29:08.312Z,-0.07
2023-03-06T15:31:38.515Z,-0.18
2023-03-06T15:34:06.040Z,-0.26
2023-03-06T15:36:34.641Z,-0.33
2023-03-06T15:39:01.918Z,0.19
2023-03-06T15:41:35.350Z,0.91
2023-03-06T15:44:12.675Z,0.98
2023-03-06T15:46:40.427Z,0.84
2023-03-06T15:49:16.795Z,0.60
2023-03-06T15:51:44.149Z,0.33
2023-03-06T15:54:12.654Z,0.03
2023-03-06T15:56:41.783Z,-0.20
2023-03-06T15:59:22.850Z,-0.33
2023-03-06T16:01:54.364Z,-0.47
2023-03-06T16:04:22.153Z,-0.64
2023-03-06T16:06:49.822Z,-0.81
2023-03-06T16:09:17.347Z,-0.88
2023-03-06T16:11:46.847Z,-0.94
2023-03-06T16:14:19.625Z,-1.05
2023-03-06T16:16:47.212Z,-1.13
2023-03-06T16:19:25.286Z,-0.62
2023-03-06T16:21:54.094Z,-0.08
2023-03-06T16:24:21.346Z,-0.06
2023-03-06T16:26:52.062Z,-0.15
2023-03-06T16:29:22.080Z,-0.27
2023-03-06T16:31:49.539Z,-0.42
2023-03-06T16:34:21.294Z,-0.62
2023-03-06T16:36:49.705Z,-0.71
2023-03-06T16:39:18.472Z,-0.82
2023-03-06T16:41:48.987Z,-0.95
2023-03-06T16:44:16.241Z,-1.06
2023-03-06T16:46:45.430Z,-1.13
2023-03-06T16:49:17.140Z,-0.68
2023-03-06T16:51:44.859Z,-0.08
2023-03-06T16:54:12.208Z,0.04
2023-03-06T16:56:39.353Z,-0.10
2023-03-06T16:59:11.406Z,-0.36
2023-03-06T17:01:39.935Z,-0.63
2023-03-06T17:04:07.650Z,-0.89
2023-03-06T17:06:38.120Z,-1.14
2023-03-06T17:09:05.656Z,-1.37
2023-03-06T17:11:32.900Z,-1.60
2023-03-06T17:14:01.694Z,-1.74
2023-03-06T17:16:29.147Z,-1.21
2023-03-06T17:18:57.939Z,-0.55
2023-03-06T17:21:26.524Z,-0.44
2023-03-06T17:23:54.181Z,-0.61
2023-03-06T17:26:25.682Z,-0.86
2023-03-06T17:28:53.905Z,-1.12
2023-03-06T17:31:22.782Z,-1.34
2023-03-06T17:33:51.174Z,-1.53
2023-03-06T17:36:18.838Z,-1.70
2023-03-06T17:38:46.758Z,-1.84
2023-03-06T17:41:13.990Z,-1.93
2023-03-06T17:43:41.103Z,-1.45
2023-03-06T17:46:10.170Z,-0.98
2023-03-06T17:48:37.654Z,-0.91
2023-03-06T17:51:06.946Z,-1.03
2023-03-06T17:53:34.416Z,-1.21
2023-03-06T17:56:11.072Z,-1.39
2023-03-06T17:58:39.479Z,-1.52
2023-03-06T18:01:11.342Z,-1.52
2023-03-06T18:03:38.878Z,-0.90
2023-03-06T18:06:08.996Z,-0.53
2023-03-06T18:08:43.525Z,-0.54
2023-03-06T18:11:10.984Z,-0.66
2023-03-06T18:13:39.763Z,-0.82
2023-03-06T18:16:08.952Z,-0.97
2023-03-06T18:18:37.251Z,-1.10
2023-03-06T18:21:09.204Z,-1.23
2023-03-06T18:23:40.458Z,-1.09
2023-03-06T18:26:12.103Z,-0.39
2023-03-06T18:28:43.816Z,-0.04
2023-03-06T18:31:18.307Z,-0.05
2023-03-06T18:33:50.749Z,-0.23
2023-03-06T18:36:18.012Z,-0.42
2023-03-06T18:38:45.670Z,-0.61
2023-03-06T18:41:13.152Z,-0.78
2023-03-06T18:43:43.857Z,-0.89
2023-03-06T18:46:11.100Z,-0.46
2023-03-06T18:48:38.256Z,-0.06
2023-03-06T18:51:08.897Z,-0.05
2023-03-06T18:53:39.825Z,-0.21
2023-03-06T18:56:08.250Z,-0.36
2023-03-06T18:58:36.697Z,-0.56
2023-03-06T19:01:08.069Z,-0.70
2023-03-06T19:03:37.975Z,-0.27
2023-03-06T19:06:07.880Z,0.21
2023-03-06T19:08:35.832Z,0.28
2023-03-06T19:11:05.864Z,0.11
2023-03-06T19:13:33.615Z,-0.09
2023-03-06T19:16:01.332Z,-0.32
2023-03-06T19:18:34.064Z,-0.49
2023-03-06T19:21:13.704Z,-0.69
2023-03-06T19:23:41.273Z,-0.43
2023-03-06T19:26:08.615Z,0.29
2023-03-06T19:28:37.104Z,0.48
2023-03-06T19:31:12.752Z,0.34
2023-03-06T19:33:41.341Z,0.03
2023-03-06T19:36:10.081Z,-0.25
2023-03-06T19:38:38.603Z,-0.54
2023-03-06T19:41:11.233Z,-0.76
2023-03-06T19:43:40.496Z,-0.95
2023-03-06T19:46:14.147Z,-0.62
2023-03-06T19:48:42.058Z,-0.02
2023-03-06T19:51:10.028Z,0.06
2023-03-06T19:53:39.625Z,-0.14
2023-03-06T19:56:09.128Z,-0.41
2023-03-06T19:58:36.799Z,-0.64
2023-03-06T20:01:09.719Z,-0.85
2023-03-06T20:03:36.923Z,-1.06
2023-03-06T20:06:08.702Z,-1.23
2023-03-06T20:08:43.000Z,-0.73
2023-03-06T20:11:20.799Z,-0.27
2023-03-06T20:13:48.262Z,-0.26
2023-03-06T20:16:16.547Z,-0.45
2023-03-06T20:18:46.603Z,-0.68
2023-03-06T20:21:14.206Z,-0.92
2023-03-06T20:23:41.583Z,-1.13
2023-03-06T20:26:11.389Z,-1.30
2023-03-06T20:28:39.957Z,-0.89
2023-03-06T20:31:08.199Z,-0.31
2023-03-06T20:33:36.293Z,-0.21
2023-03-06T20:36:04.353Z,-0.33
2023-03-06T20:38:36.015Z,-0.53
2023-03-06T20:41:03.519Z,-0.72
2023-03-06T20:43:31.259Z,-0.92
2023-03-06T20:46:02.669Z,-1.03
2023-03-06T20:48:29.840Z,-0.52
2023-03-06T20:50:59.648Z,-0.13
2023-03-06T20:53:26.814Z,-0.15
2023-03-06T20:55:55.747Z,-0.29
2023-03-06T20:58:25.401Z,-0.46
2023-03-06T21:00:57.672Z,-0.66
2023-03-06T21:03:44.583Z,-0.87
2023-03-06T21:06:12.147Z,-0.78
2023-03-06T21:08:39.211Z,-0.09
2023-03-06T21:11:06.342Z,0.18
2023-03-06T21:13:34.251Z,0.10
2023-03-06T21:16:10.015Z,-0.09
2023-03-06T21:18:37.312Z,-0.30
2023-03-06T21:21:08.458Z,-0.45
2023-03-06T21:23:36.542Z,-0.59
2023-03-06T21:26:06.154Z,-0.37
2023-03-06T21:28:34.048Z,0.24
2023-03-06T21:31:01.494Z,0.40
2023-03-06T21:33:29.430Z,0.32
2023-03-06T21:35:56.639Z,0.15
2023-03-06T21:38:25.986Z,-0.04
2023-03-06T21:40:55.345Z,-0.22
2023-03-06T21:43:22.757Z,-0.38
2023-03-06T21:45:52.262Z,-0.52
2023-03-06T21:48:19.331Z,-0.07
2023-03-06T21:50:46.435Z,0.53
2023-03-06T21:53:14.820Z,0.63
2023-03-06T21:55:41.966Z,0.56
2023-03-06T21:58:10.548Z,0.41
2023-03-06T22:00:38.015Z,0.24
2023-03-06T22:03:06.079Z,0.05
2023-03-06T22:05:33.634Z,-0.09
2023-03-06T22:08:01.627Z,-0.23
2023-03-06T22:10:28.955Z,-0.35
2023-03-06T22:12:57.334Z,-0.43
2023-03-06T22:15:29.075Z,-0.47
2023-03-06T22:17:58.495Z,0.11
2023-03-06T22:20:25.820Z,0.86
2023-03-06T22:22:56.787Z,1.05
2023-03-06T22:25:24.038Z,0.95
2023-03-06T22:27:51.123Z,0.73
2023-03-06T22:30:18.538Z,0.47
2023-03-06T22:32:45.925Z,0.22
2023-03-06T22:35:14.371Z,-0.00
2023-03-06T22:37:43.771Z,-0.18
2023-03-06T22:40:12.560Z,-0.36
2023-03-06T22:42:42.081Z,-0.47
2023-03-06T22:45:12.287Z,0.03
2023-03-06T22:47:39.743Z,0.70
2023-03-06T22:50:07.847Z,0.83
2023-03-06T22:52:35.063Z,0.68
2023-03-06T22:55:07.544Z,0.45
2023-03-06T22:57:34.969Z,0.20
2023-03-06T23:00:02.286Z,-0.03
2023-03-06T23:02:34.727Z,-0.24
2023-03-06T23:05:01.571Z,-0.41
2023-03-06T23:07:34.171Z,-0.58
2023-03-06T23:10:01.315Z,-0.74
2023-03-06T23:12:47.696Z,-0.87
2023-03-06T23:15:34.942Z,-0.14
2023-03-06T23:18:21.933Z,0.52
2023-03-06T23:21:09.472Z,0.51
2023-03-06T23:23:57.021Z,0.24
2023-03-06T23:26:25.569Z,-0.03
2023-03-06T23:28:52.928Z,-0.28
2023-03-06T23:31:23.198Z,-0.51
2023-03-06T23:33:50.604Z,-0.72
2023-03-06T23:36:19.445Z,-0.90
2023-03-06T23:38:46.671Z,-1.04
2023-03-06T23:41:15.616Z,-0.80
2023-03-06T23:43:43.808Z,-0.05
2023-03-06T23:46:10.840Z,0.25
2023-03-06T23:48:39.135Z,0.20
2023-03-06T23:51:12.153Z,0.01
2023-03-06T23:53:40.881Z,-0.21
2023-03-06T23:56:09.281Z,-0.38
2023-03-06T23:58:36.658Z,-0.53
